Terminal Aerodrome Forecast
Issued by NWS Caribou, ME

Current Version | Previous Version | Text Only | Print | Product List | Glossary On
Versions: 1 2 3 4 5 6 7 8 9 10 11 12 13 14 15 16 17 18 19 20 21 22 23 24 25 26 27
000 FTUS41 KCAR 252300 TAFBGR TAF KBGR 252320Z 2600/2624 VRB02KT P6SM SCT100 BKN200 FM260300 VRB02KT P6SM BKN045 OVC090 FM260500 15004KT P6SM VCSH OVC035 FM260800 22004KT 6SM -SHRA OVC020 FM261300 27004KT P6SM VCSH BKN035 FM261800 28008KT P6SM BKN040=

USA.gov is the U.S. government's official web portal to all federal, state and local government web resources and services.